Time;durP1;ratioP1;P1;durP2;ratioP2;P2;SDS_P1;SDS_P2;PMS_P1;PMS_P2;Temp;Humidity;BMP_temperature;BMP_pressure;BME280_temperature;BME280_humidity;BME280_pressure;Samples;Min_cycle;Max_cycle;Signal;HPM_P1;HPM_P2
2021/05/30 00:01:51;;;;;;;3.00;2.45;;;10.20;99.90;;;;;;5011182;28;20194;-68
2021/05/30 00:04:20;;;;;;;2.80;2.10;;;10.10;99.90;;;;;;5011139;28;20209;-68
2021/05/30 00:06:48;;;;;;;2.95;2.70;;;10.00;99.90;;;;;;5011744;28;20888;-68
2021/05/30 00:09:16;;;;;;;3.13;2.50;;;10.00;99.90;;;;;;5010943;28;20701;-68
2021/05/30 00:11:44;;;;;;;2.42;2.22;;;9.90;99.90;;;;;;5009236;28;20206;-69
2021/05/30 00:14:18;;;;;;;4.40;2.17;;;9.90;99.90;;;;;;5010811;28;20210;-68
2021/05/30 00:16:46;;;;;;;5.25;2.88;;;9.80;99.90;;;;;;5011069;28;20220;-68
2021/05/30 00:19:14;;;;;;;3.72;3.08;;;9.70;99.90;;;;;;5010914;28;20187;-68
2021/05/30 00:21:42;;;;;;;3.85;2.30;;;9.70;99.90;;;;;;5010857;28;20194;-69
2021/05/30 00:24:11;;;;;;;3.00;2.70;;;9.70;99.90;;;;;;5010847;28;20209;-69
2021/05/30 00:26:38;;;;;;;2.63;2.42;;;9.60;99.90;;;;;;5010924;28;20187;-69
2021/05/30 00:29:06;;;;;;;3.38;3.00;;;9.60;99.90;;;;;;5009780;28;20182;-68
2021/05/30 00:31:34;;;;;;;3.08;2.78;;;9.50;99.90;;;;;;5010986;28;20210;-68
2021/05/30 00:34:03;;;;;;;2.90;2.20;;;9.50;99.90;;;;;;5009325;28;20238;-69
2021/05/30 00:36:30;;;;;;;3.00;2.38;;;9.50;99.90;;;;;;5010912;28;20209;-68
2021/05/30 00:38:58;;;;;;;5.13;3.10;;;9.50;99.90;;;;;;5011089;28;20198;-68
2021/05/30 00:41:26;;;;;;;3.20;2.90;;;9.40;99.90;;;;;;5011014;28;20523;-68
2021/05/30 00:43:55;;;;;;;3.53;2.70;;;9.40;99.90;;;;;;5010441;28;20232;-68
2021/05/30 00:46:24;;;;;;;3.33;2.83;;;9.30;1.00;;;;;;5009727;28;20244;-68
2021/05/30 00:48:52;;;;;;;3.05;2.75;;;9.30;99.90;;;;;;5010807;28;20293;-67
2021/05/30 00:51:20;;;;;;;5.28;3.15;;;9.20;99.90;;;;;;5010812;28;20264;-67
2021/05/30 00:53:48;;;;;;;3.30;3.00;;;9.30;1.00;;;;;;5010347;28;20572;-68
2021/05/30 00:56:16;;;;;;;4.50;2.70;;;9.20;1.00;;;;;;5010664;28;20206;-68
2021/05/30 00:58:44;;;;;;;4.40;3.53;;;9.20;99.90;;;;;;5010692;28;20182;-69
2021/05/30 01:01:11;;;;;;;3.50;3.20;;;9.20;73.00;;;;;;5010629;28;20190;-68
2021/05/30 01:03:39;;;;;;;3.33;2.97;;;9.20;75.50;;;;;;5010566;28;20206;-69
2021/05/30 01:06:10;;;;;;;4.40;4.00;;;9.10;1.00;;;;;;5010603;28;20181;-67
2021/05/30 01:08:37;;;;;;;4.10;3.65;;;9.10;99.90;;;;;;5010580;28;20248;-68
2021/05/30 01:11:14;;;;;;;3.97;3.10;;;9.10;1.00;;;;;;5010283;28;20218;-68
2021/05/30 01:13:42;;;;;;;4.07;2.85;;;9.10;99.90;;;;;;5010762;28;20210;-69
2021/05/30 01:16:12;;;;;;;3.35;3.05;;;9.10;99.90;;;;;;5010282;28;20202;-69
2021/05/30 01:18:40;;;;;;;5.22;3.85;;;9.10;1.00;;;;;;5010691;28;20675;-67
2021/05/30 01:21:09;;;;;;;4.70;3.20;;;9.00;99.90;;;;;;5011467;28;20295;-67
2021/05/30 01:23:38;;;;;;;5.18;3.10;;;8.90;99.90;;;;;;5014740;28;20245;-68
2021/05/30 01:26:05;;;;;;;4.40;2.92;;;8.90;99.90;;;;;;5014580;28;20554;-68
2021/05/30 01:28:33;;;;;;;4.45;3.58;;;8.80;99.90;;;;;;5013764;28;20697;-68
2021/05/30 01:31:01;;;;;;;4.38;3.20;;;8.80;99.90;;;;;;5015376;28;20557;-68
2021/05/30 01:33:29;;;;;;;2.90;2.70;;;8.80;99.90;;;;;;5014423;28;20301;-68
2021/05/30 01:35:57;;;;;;;4.88;4.20;;;8.80;99.90;;;;;;5014219;28;20202;-68
2021/05/30 01:38:24;;;;;;;2.97;2.78;;;8.80;99.90;;;;;;5014452;28;20192;-68
2021/05/30 01:40:53;;;;;;;3.65;3.10;;;8.80;99.90;;;;;;5014827;28;20201;-68
2021/05/30 01:43:21;;;;;;;5.28;3.90;;;8.80;99.90;;;;;;5014930;28;20225;-69
2021/05/30 01:45:49;;;;;;;4.60;3.53;;;8.70;99.90;;;;;;5015230;28;20205;-70
2021/05/30 01:48:16;;;;;;;5.20;3.63;;;8.70;99.90;;;;;;5015701;28;20608;-68
2021/05/30 01:50:47;;;;;;;8.98;3.08;;;8.60;99.90;;;;;;5017373;28;20583;-68
2021/05/30 01:53:16;;;;;;;5.55;3.67;;;8.60;99.90;;;;;;5017537;28;20577;-68
2021/05/30 01:56:55;;;;;;;3.03;2.50;;;8.60;99.90;;;;;;5016040;28;20190;-68
2021/05/30 01:58:43;;;;;;;3.90;3.00;;;8.60;99.90;;;;;;5016022;28;20281;-68
2021/05/30 02:01:13;;;;;;;3.83;3.10;;;8.60;99.90;;;;;;5015026;28;20205;-68
2021/05/30 02:03:42;;;;;;;3.28;2.33;;;8.60;99.90;;;;;;5014129;28;20577;-69
2021/05/30 02:06:10;;;;;;;3.17;2.88;;;8.60;99.90;;;;;;5015184;28;20186;-68
2021/05/30 02:08:39;;;;;;;4.47;3.53;;;8.60;99.90;;;;;;5013821;28;20179;-68
2021/05/30 02:11:09;;;;;;;4.25;2.85;;;8.70;99.90;;;;;;5014144;28;20252;-68
2021/05/30 02:13:37;;;;;;;4.28;2.85;;;8.70;99.90;;;;;;5013759;28;20206;-69
2021/05/30 02:16:06;;;;;;;5.45;3.03;;;8.70;99.90;;;;;;5013762;28;20549;-68
2021/05/30 02:18:35;;;;;;;5.40;3.22;;;8.70;99.90;;;;;;5014455;28;20201;-68
2021/05/30 02:21:02;;;;;;;2.70;2.28;;;8.70;99.90;;;;;;5014283;28;20256;-69
2021/05/30 02:23:32;;;;;;;3.95;2.47;;;8.60;99.90;;;;;;5012492;28;20226;-68
2021/05/30 02:26:02;;;;;;;4.10;3.70;;;8.60;99.90;;;;;;5014075;28;20190;-69
2021/05/30 02:28:30;;;;;;;3.58;2.95;;;8.50;99.90;;;;;;5014119;28;20179;-68
2021/05/30 02:30:58;;;;;;;2.63;2.42;;;8.50;99.90;;;;;;5012528;28;20226;-68
2021/05/30 02:33:27;;;;;;;3.83;3.53;;;8.50;99.90;;;;;;5013645;28;20775;-68
2021/05/30 02:35:55;;;;;;;3.53;2.72;;;8.50;99.90;;;;;;5013130;28;20190;-66
2021/05/30 02:38:23;;;;;;;5.38;2.72;;;8.40;99.90;;;;;;5013893;28;20560;-67
2021/05/30 02:40:51;;;;;;;3.50;3.17;;;8.40;99.90;;;;;;5013992;28;20205;-67
2021/05/30 02:43:20;;;;;;;7.07;3.33;;;8.40;99.90;;;;;;5014380;28;20233;-68
2021/05/30 02:45:47;;;;;;;6.03;2.90;;;8.50;99.90;;;;;;5013855;28;20268;-68
2021/05/30 02:48:15;;;;;;;4.55;3.13;;;8.40;99.90;;;;;;5014550;28;20175;-67
2021/05/30 02:50:44;;;;;;;3.78;3.20;;;8.40;99.90;;;;;;5014411;28;20658;-67
2021/05/30 02:53:12;;;;;;;4.07;2.60;;;8.40;99.90;;;;;;5014418;28;20561;-67
2021/05/30 02:55:39;;;;;;;4.00;2.70;;;8.40;99.90;;;;;;5013473;28;20188;-67
2021/05/30 02:58:07;;;;;;;3.85;2.65;;;8.50;99.90;;;;;;5013414;28;20560;-67
2021/05/30 03:00:34;;;;;;;3.95;2.78;;;8.50;99.90;;;;;;5013346;28;20171;-67
2021/05/30 03:03:02;;;;;;;4.25;3.58;;;8.50;99.90;;;;;;5011776;28;20225;-67
2021/05/30 03:05:30;;;;;;;4.72;3.25;;;8.50;99.90;;;;;;5012846;28;20222;-67
2021/05/30 03:07:58;;;;;;;7.47;2.85;;;8.60;99.90;;;;;;5011527;28;20222;-67
2021/05/30 03:10:26;;;;;;;2.83;2.33;;;8.60;99.90;;;;;;5090833;22;21541;-66
2021/05/30 03:12:54;;;;;;;3.97;3.17;;;8.70;99.90;;;;;;4992473;28;20261;-67
2021/05/30 03:15:22;;;;;;;3.85;3.15;;;8.70;99.90;;;;;;4992336;28;20194;-66
2021/05/30 03:17:49;;;;;;;5.20;2.70;;;8.70;99.90;;;;;;4991059;28;20223;-66
2021/05/30 03:20:17;;;;;;;3.55;3.15;;;8.70;99.90;;;;;;4993267;28;20187;-66
2021/05/30 03:22:45;;;;;;;3.35;3.00;;;8.70;99.90;;;;;;4990736;28;20227;-67
2021/05/30 03:25:14;;;;;;;3.90;3.03;;;8.70;99.90;;;;;;4992462;28;20198;-66
2021/05/30 03:27:42;;;;;;;4.50;3.20;;;8.70;99.90;;;;;;4992453;28;20551;-66
2021/05/30 03:30:12;;;;;;;5.75;3.05;;;8.80;99.90;;;;;;4992801;28;20193;-66
2021/05/30 03:32:39;;;;;;;4.22;3.00;;;8.80;99.90;;;;;;4992545;28;20191;-67
2021/05/30 03:35:08;;;;;;;5.72;2.90;;;8.90;99.90;;;;;;4992454;28;20742;-67
2021/05/30 03:37:36;;;;;;;2.45;2.20;;;9.40;99.90;;;;;;4992393;28;20222;-67
2021/05/30 03:40:11;;;;;;;3.17;2.60;;;10.40;99.90;;;;;;4992251;28;20194;-67
2021/05/30 03:42:47;;;;;;;3.50;2.65;;;11.50;99.90;;;;;;4991901;28;20197;-67
2021/05/30 03:45:15;;;;;;;3.50;2.58;;;12.10;99.90;;;;;;4991853;28;20271;-66
2021/05/30 03:47:43;;;;;;;3.17;2.87;;;12.40;99.90;;;;;;4992288;28;20254;-67
2021/05/30 03:50:11;;;;;;;3.00;2.10;;;12.80;99.90;;;;;;4992235;28;20404;-68
2021/05/30 03:52:39;;;;;;;5.27;2.70;;;13.10;99.90;;;;;;4991864;28;20771;-67
2021/05/30 03:55:08;;;;;;;2.97;2.67;;;13.60;99.90;;;;;;4991873;28;20431;-66
2021/05/30 03:57:36;;;;;;;3.97;3.07;;;14.00;99.90;;;;;;4991937;28;20964;-67
2021/05/30 04:00:06;;;;;;;2.20;2.00;;;14.10;99.90;;;;;;4991617;28;20397;-66
2021/05/30 04:02:33;;;;;;;3.00;2.80;;;14.00;99.90;;;;;;4991421;28;20460;-68
2021/05/30 04:05:01;;;;;;;5.07;2.60;;;13.80;99.90;;;;;;4992344;28;20443;-66
2021/05/30 04:07:29;;;;;;;3.00;2.80;;;13.80;99.90;;;;;;4991524;28;20397;-66
2021/05/30 04:10:02;;;;;;;3.20;2.40;;;14.20;99.90;;;;;;4990408;28;20446;-67
2021/05/30 04:12:30;;;;;;;2.80;2.43;;;14.70;99.90;;;;;;4991238;28;20404;-67
2021/05/30 04:14:58;;;;;;;4.40;2.83;;;15.10;99.90;;;;;;4991535;28;20435;-67
2021/05/30 04:17:26;;;;;;;3.07;2.17;;;15.20;99.90;;;;;;4991430;28;20436;-67
2021/05/30 04:19:54;;;;;;;2.80;2.13;;;15.50;99.90;;;;;;4991128;28;20424;-67
2021/05/30 04:22:21;;;;;;;2.30;2.10;;;15.70;99.90;;;;;;4989631;28;20472;-66
2021/05/30 04:24:49;;;;;;;2.93;2.07;;;15.80;99.90;;;;;;4991130;28;20433;-67
2021/05/30 04:27:17;;;;;;;2.80;1.70;;;16.20;99.90;;;;;;4991307;28;20453;-67
2021/05/30 04:29:45;;;;;;;4.13;2.60;;;16.70;99.90;;;;;;4991043;28;20414;-67
2021/05/30 04:32:12;;;;;;;3.10;2.50;;;17.40;99.90;;;;;;4990842;28;20445;-67
2021/05/30 04:34:41;;;;;;;4.40;2.40;;;17.40;99.90;;;;;;4990490;28;20441;-67
2021/05/30 04:37:08;;;;;;;3.80;2.53;;;18.50;99.90;;;;;;4990964;28;20493;-67
2021/05/30 04:39:36;;;;;;;2.53;2.20;;;18.70;99.90;;;;;;4990908;28;20422;-67
2021/05/30 04:42:06;;;;;;;6.60;2.80;;;19.30;99.90;;;;;;4990942;28;20956;-67
2021/05/30 04:44:34;;;;;;;2.27;2.03;;;19.90;99.90;;;;;;4990991;28;20437;-67
2021/05/30 04:47:02;;;;;;;6.63;3.27;;;20.00;99.90;;;;;;4991372;28;20926;-67
2021/05/30 04:49:29;;;;;;;3.07;2.10;;;19.80;99.90;;;;;;4991215;28;20400;-65
2021/05/30 04:51:58;;;;;;;4.80;2.77;;;19.70;99.90;;;;;;4990539;28;20434;-66
2021/05/30 04:54:25;;;;;;;2.97;2.70;;;18.70;99.90;;;;;;4990442;28;20454;-66
2021/05/30 04:56:53;;;;;;;2.73;2.47;;;18.80;99.90;;;;;;4991679;28;20472;-66
2021/05/30 04:59:21;;;;;;;2.80;2.60;;;18.80;99.90;;;;;;4994911;28;20977;-66
2021/05/30 05:01:48;;;;;;;3.53;2.30;;;18.90;99.90;;;;;;4994563;28;20422;-68
2021/05/30 05:04:16;;;;;;;1.73;1.63;;;18.50;99.90;;;;;;4997742;28;20445;-67
2021/05/30 05:06:44;;;;;;;4.60;2.00;;;19.20;99.90;;;;;;4998723;28;20919;-68
2021/05/30 05:09:12;;;;;;;1.97;1.87;;;19.90;99.90;;;;;;4998163;28;20410;-67
2021/05/30 05:11:40;;;;;;;2.80;2.47;;;20.50;99.90;;;;;;4995775;28;20416;-66
2021/05/30 05:14:07;;;;;;;1.60;1.50;;;19.50;99.90;;;;;;4994961;28;20849;-67
2021/05/30 05:16:35;;;;;;;2.47;2.13;;;18.40;99.90;;;;;;4994599;28;20400;-67
2021/05/30 05:19:03;;;;;;;4.40;2.83;;;18.90;99.90;;;;;;4995000;28;20793;-67
2021/05/30 05:21:30;;;;;;;2.73;2.30;;;19.60;99.90;;;;;;4994260;28;20780;-66
2021/05/30 05:23:58;;;;;;;3.33;2.07;;;19.20;99.90;;;;;;4994226;28;20442;-66
2021/05/30 05:26:27;;;;;;;1.60;1.50;;;19.30;99.90;;;;;;4994460;28;20422;-67
2021/05/30 05:28:54;;;;;;;3.40;2.27;;;18.10;99.90;;;;;;4993048;28;20433;-66
2021/05/30 05:31:22;;;;;;;1.80;1.30;;;18.10;99.90;;;;;;4994219;28;20953;-66
2021/05/30 05:33:50;;;;;;;3.87;2.40;;;16.40;99.90;;;;;;4994085;28;20467;-68
2021/05/30 05:36:22;;;;;;;3.87;2.57;;;14.90;99.90;;;;;;4993097;28;20438;-68
2021/05/30 05:38:51;;;;;;;2.40;2.17;;;13.70;99.90;;;;;;4994333;28;20465;-67
2021/05/30 05:41:19;;;;;;;3.67;2.50;;;13.10;99.90;;;;;;4992643;28;20489;-67
2021/05/30 05:43:47;;;;;;;3.80;2.23;;;12.70;99.90;;;;;;4994217;28;20441;-67
2021/05/30 05:46:15;;;;;;;3.87;2.10;;;12.50;99.90;;;;;;4994368;28;20422;-66
2021/05/30 05:48:43;;;;;;;3.60;1.87;;;12.30;99.90;;;;;;4992820;28;20413;-66
2021/05/30 05:51:10;;;;;;;2.60;1.73;;;12.40;99.90;;;;;;4993871;28;20451;-67
2021/05/30 05:53:38;;;;;;;2.70;1.90;;;12.40;99.90;;;;;;4993969;28;20441;-68
2021/05/30 05:56:06;;;;;;;3.70;2.13;;;12.50;99.90;;;;;;4994010;28;20450;-67
2021/05/30 05:58:33;;;;;;;3.30;2.00;;;12.60;99.90;;;;;;4994023;28;20447;-67
2021/05/30 06:01:02;;;;;;;2.10;1.63;;;12.60;99.90;;;;;;4993740;28;20926;-68
2021/05/30 06:03:30;;;;;;;2.43;2.13;;;12.60;99.90;;;;;;4993578;28;20797;-67
2021/05/30 06:05:58;;;;;;;2.10;1.90;;;12.80;99.90;;;;;;4993893;28;20476;-68
2021/05/30 06:08:25;;;;;;;2.40;2.07;;;12.80;99.90;;;;;;4993260;28;20433;-67
2021/05/30 06:10:53;;;;;;;3.10;1.37;;;12.80;99.90;;;;;;4993438;28;20473;-66
2021/05/30 06:13:21;;;;;;;3.33;2.20;;;12.90;99.90;;;;;;4993779;28;20523;-67
2021/05/30 06:15:48;;;;;;;3.73;2.07;;;13.00;99.90;;;;;;4994372;28;20405;-68
2021/05/30 06:18:18;;;;;;;4.03;3.63;;;13.00;99.90;;;;;;4993767;28;20462;-68
2021/05/30 06:20:46;;;;;;;7.43;6.73;;;13.00;99.90;;;;;;4993404;28;20401;-67
2021/05/30 06:23:15;;;;;;;3.23;2.70;;;13.10;99.90;;;;;;4993578;28;20427;-67
2021/05/30 06:25:44;;;;;;;14.70;9.93;;;13.10;99.90;;;;;;4993858;28;20422;-67
2021/05/30 06:28:12;;;;;;;5.23;4.80;;;13.20;99.90;;;;;;4993926;28;20489;-68
2021/05/30 06:30:41;;;;;;;7.47;6.77;;;13.20;99.90;;;;;;4992651;28;20806;-66
2021/05/30 06:33:10;;;;;;;7.87;4.57;;;13.40;99.90;;;;;;4993240;28;20427;-68
2021/05/30 06:35:40;;;;;;;13.70;8.93;;;13.40;99.90;;;;;;4993748;28;20907;-69
2021/05/30 06:38:08;;;;;;;5.40;5.00;;;13.60;99.90;;;;;;4993455;28;20484;-69
2021/05/30 06:40:36;;;;;;;4.80;3.40;;;13.70;99.90;;;;;;4992261;28;20492;-67
2021/05/30 06:43:04;;;;;;;5.10;4.80;;;13.80;99.90;;;;;;4992268;28;20785;-69
2021/05/30 06:45:32;;;;;;;2.17;1.97;;;13.90;99.90;;;;;;4993418;28;20811;-68
2021/05/30 06:48:01;;;;;;;2.47;2.07;;;13.90;99.90;;;;;;4993174;28;20429;-66
2021/05/30 06:50:30;;;;;;;2.40;2.20;;;14.00;99.90;;;;;;4993439;28;20422;-68
2021/05/30 06:52:59;;;;;;;5.77;5.27;;;14.10;99.90;;;;;;4991937;28;20446;-68
2021/05/30 06:55:26;;;;;;;2.40;2.20;;;14.20;99.90;;;;;;4992786;28;20961;-68
2021/05/30 06:57:54;;;;;;;2.93;2.70;;;14.20;99.90;;;;;;4992687;28;20458;-68
2021/05/30 07:00:22;;;;;;;2.50;2.30;;;14.30;99.90;;;;;;4992518;28;20524;-67
2021/05/30 07:02:51;;;;;;;2.53;2.33;;;14.30;99.90;;;;;;4992293;28;20438;-68
2021/05/30 07:05:21;;;;;;;3.53;2.90;;;14.30;99.90;;;;;;4992783;28;20457;-67
2021/05/30 07:07:49;;;;;;;2.80;1.60;;;14.40;99.90;;;;;;4992565;28;20498;-67
2021/05/30 07:10:18;;;;;;;3.40;3.10;;;14.60;99.90;;;;;;4992277;28;20422;-68
2021/05/30 07:12:45;;;;;;;3.17;1.70;;;14.70;99.90;;;;;;4992397;28;20461;-69
2021/05/30 07:15:14;;;;;;;1.60;1.37;;;14.80;99.90;;;;;;4992162;28;20728;-68
2021/05/30 07:17:42;;;;;;;1.40;1.30;;;14.80;99.90;;;;;;4992338;28;20974;-67
2021/05/30 07:20:11;;;;;;;3.57;1.50;;;14.90;99.90;;;;;;4991517;28;20397;-66
2021/05/30 07:22:39;;;;;;;2.10;1.60;;;15.00;99.90;;;;;;4992415;28;20438;-67
2021/05/30 07:25:08;;;;;;;5.93;3.00;;;15.10;99.90;;;;;;4992158;28;20393;-67
2021/05/30 07:27:37;;;;;;;2.73;1.50;;;15.20;99.90;;;;;;4991404;28;20422;-68
2021/05/30 07:30:06;;;;;;;2.30;1.90;;;15.20;99.90;;;;;;4991703;28;20419;-68
2021/05/30 07:32:35;;;;;;;1.70;1.50;;;15.10;99.90;;;;;;4991941;28;20449;-67
2021/05/30 07:35:04;;;;;;;2.73;2.53;;;15.00;99.90;;;;;;4992176;28;20444;-68
2021/05/30 07:37:31;;;;;;;1.40;1.20;;;14.90;99.90;;;;;;4992070;28;20434;-66
2021/05/30 07:39:59;;;;;;;4.33;1.77;;;15.00;99.90;;;;;;4992031;28;20833;-67
2021/05/30 07:42:27;;;;;;;2.30;1.50;;;15.00;99.90;;;;;;4991746;28;20480;-67
2021/05/30 07:44:55;;;;;;;1.70;1.43;;;15.20;99.90;;;;;;4990413;28;20438;-67
2021/05/30 07:47:23;;;;;;;2.23;1.40;;;15.30;99.90;;;;;;4992219;28;20789;-69
2021/05/30 07:49:52;;;;;;;2.67;1.23;;;15.30;99.90;;;;;;4994023;28;20792;-68
2021/05/30 07:52:20;;;;;;;1.70;1.37;;;15.40;99.90;;;;;;4992620;28;20432;-68
2021/05/30 07:54:48;;;;;;;2.27;1.80;;;15.40;99.90;;;;;;4993109;28;20437;-68
2021/05/30 07:57:16;;;;;;;2.03;1.40;;;15.40;99.90;;;;;;4994027;28;20422;-69
2021/05/30 07:59:43;;;;;;;1.43;1.23;;;15.50;99.90;;;;;;4993724;28;20469;-68
2021/05/30 08:02:12;;;;;;;3.10;1.40;;;15.30;99.90;;;;;;4991954;28;20789;-69
2021/05/30 08:04:40;;;;;;;2.10;1.37;;;15.60;99.90;;;;;;4991508;28;20464;-68
2021/05/30 08:07:08;;;;;;;2.10;1.63;;;15.80;99.90;;;;;;4991335;28;20422;-67
2021/05/30 08:09:36;;;;;;;3.40;1.57;;;16.00;99.90;;;;;;4991115;28;20432;-68
2021/05/30 08:12:05;;;;;;;2.33;1.97;;;16.20;99.90;;;;;;4991072;28;20427;-69
2021/05/30 08:14:32;;;;;;;1.80;1.60;;;16.20;99.90;;;;;;4991137;28;20454;-67
2021/05/30 08:17:00;;;;;;;3.67;2.23;;;16.20;99.90;;;;;;4992130;28;20429;-69
2021/05/30 08:19:29;;;;;;;3.20;2.90;;;16.10;99.90;;;;;;4989961;28;20448;-67
2021/05/30 08:21:56;;;;;;;2.97;2.67;;;16.00;99.90;;;;;;4990761;28;20392;-67
2021/05/30 08:24:24;;;;;;;2.77;2.50;;;16.10;99.90;;;;;;4989599;28;20471;-67
2021/05/30 08:26:54;;;;;;;3.70;2.10;;;16.00;99.90;;;;;;4991113;28;20405;-67
2021/05/30 08:29:23;;;;;;;4.70;3.93;;;16.10;99.90;;;;;;4991027;28;20465;-68
2021/05/30 08:31:51;;;;;;;5.57;5.07;;;16.20;99.90;;;;;;4990904;28;20521;-68
2021/05/30 08:34:20;;;;;;;3.97;3.67;;;16.30;99.90;;;;;;4991519;28;20450;-68
2021/05/30 08:36:49;;;;;;;2.47;2.00;;;16.20;99.90;;;;;;4991350;28;20433;-68
2021/05/30 08:39:16;;;;;;;1.60;1.17;;;16.10;99.90;;;;;;4991352;28;20975;-68
2021/05/30 08:41:44;;;;;;;1.60;1.37;;;16.10;99.90;;;;;;4991016;28;20396;-67
2021/05/30 08:44:12;;;;;;;4.23;1.63;;;16.30;99.90;;;;;;4989536;28;20610;-67
2021/05/30 08:46:41;;;;;;;2.67;1.80;;;16.40;99.90;;;;;;4990939;28;20430;-67
2021/05/30 08:49:10;;;;;;;1.87;1.40;;;16.50;99.90;;;;;;4991291;28;20430;-68
2021/05/30 08:51:40;;;;;;;2.40;1.33;;;16.80;99.90;;;;;;4991364;28;20754;-68
2021/05/30 08:54:10;;;;;;;2.10;1.80;;;16.90;99.90;;;;;;4990741;28;20568;-67
2021/05/30 08:56:40;;;;;;;2.23;2.00;;;16.90;99.90;;;;;;4990857;28;20936;-68
2021/05/30 08:59:20;;;;;;;2.60;1.47;;;16.90;99.90;;;;;;4990864;28;20987;-67
2021/05/30 09:01:48;;;;;;;2.23;1.50;;;17.00;99.90;;;;;;4990941;28;20449;-68
2021/05/30 09:04:16;;;;;;;1.90;1.53;;;17.20;99.90;;;;;;4990994;28;20424;-66
2021/05/30 09:06:45;;;;;;;5.00;1.53;;;17.10;99.90;;;;;;4990984;28;20461;-68
2021/05/30 09:09:14;;;;;;;2.23;1.80;;;17.20;99.90;;;;;;4991066;28;20428;-67
2021/05/30 09:11:48;;;;;;;2.30;1.60;;;17.20;99.90;;;;;;4990246;28;20569;-68
2021/05/30 09:14:19;;;;;;;1.70;1.40;;;17.20;99.90;;;;;;4990122;28;20453;-69
2021/05/30 09:16:49;;;;;;;2.03;1.50;;;17.20;99.90;;;;;;4990500;28;20426;-68
2021/05/30 09:19:38;;;;;;;1.63;1.20;;;17.10;99.90;;;;;;4990740;28;20465;-67
2021/05/30 09:22:33;;;;;;;2.47;1.67;;;17.30;99.90;;;;;;4990315;28;20429;-68
2021/05/30 09:25:22;;;;;;;1.80;1.40;;;17.40;99.90;;;;;;4990340;28;20983;-67
2021/05/30 09:28:00;;;;;;;3.73;1.80;;;17.50;99.90;;;;;;4990498;28;20422;-69
2021/05/30 09:30:35;;;;;;;2.60;1.87;;;17.40;99.90;;;;;;4990580;28;20438;-68
2021/05/30 09:33:09;;;;;;;3.20;1.63;;;17.40;99.90;;;;;;4990300;28;20452;-67
2021/05/30 09:36:01;;;;;;;3.93;1.80;;;17.60;99.90;;;;;;4990489;28;20528;-67
2021/05/30 09:38:37;;;;;;;1.33;1.23;;;17.40;99.90;;;;;;4990413;28;20551;-68
2021/05/30 09:41:08;;;;;;;2.30;1.70;;;17.40;99.90;;;;;;4990243;28;20838;-68
2021/05/30 09:43:46;;;;;;;6.30;1.63;;;17.20;99.90;;;;;;4993436;28;20971;-68
2021/05/30 09:46:15;;;;;;;2.27;1.63;;;17.20;99.90;;;;;;4994571;28;20779;-68
2021/05/30 09:48:57;;;;;;;1.83;1.37;;;17.30;99.90;;;;;;4993533;28;21075;-68
2021/05/30 09:51:35;;;;;;;3.33;1.60;;;17.40;99.90;;;;;;4994288;28;21119;-67
2021/05/30 09:54:05;;;;;;;2.23;1.70;;;17.20;99.90;;;;;;4994114;28;20436;-68
2021/05/30 09:56:37;;;;;;;1.87;1.53;;;17.20;99.90;;;;;;4994519;28;20568;-67
2021/05/30 09:59:08;;;;;;;1.70;1.53;;;17.30;99.90;;;;;;4994285;28;21031;-67
2021/05/30 10:02:03;;;;;;;1.67;1.57;;;17.50;99.90;;;;;;4993829;28;20441;-68
2021/05/30 10:04:32;;;;;;;5.80;1.90;;;17.70;99.90;;;;;;4948939;28;20468;-67
2021/05/30 10:07:01;;;;;;;2.23;1.03;;;17.70;99.90;;;;;;4993938;28;20419;-67
2021/05/30 10:09:29;;;;;;;2.30;1.63;;;17.80;99.90;;;;;;4991755;28;20466;-67
2021/05/30 10:11:59;;;;;;;5.23;1.33;;;18.10;99.90;;;;;;4993528;28;20496;-67
2021/05/30 10:14:28;;;;;;;2.07;1.87;;;18.20;99.90;;;;;;4993878;28;20529;-67
2021/05/30 10:16:56;;;;;;;1.60;1.47;;;18.00;99.90;;;;;;4994064;28;20461;-67
2021/05/30 10:19:29;;;;;;;4.03;1.70;;;18.00;99.90;;;;;;4995193;28;20493;-68
2021/05/30 10:21:58;;;;;;;2.33;2.13;;;18.00;99.90;;;;;;4995292;28;20430;-67
2021/05/30 10:24:27;;;;;;;2.70;1.43;;;18.20;99.90;;;;;;4995564;28;20446;-67
2021/05/30 10:27:14;;;;;;;5.07;1.67;;;18.00;99.90;;;;;;4994655;28;20426;-67
2021/05/30 10:30:13;;;;;;;1.60;1.50;;;18.30;99.90;;;;;;4991939;28;20472;-66
2021/05/30 10:32:43;;;;;;;6.20;2.73;;;18.30;99.90;;;;;;4992797;28;20453;-66
2021/05/30 10:35:16;;;;;;;1.70;1.50;;;18.40;99.90;;;;;;4992658;28;20400;-68
2021/05/30 10:37:45;;;;;;;2.30;2.10;;;18.30;99.90;;;;;;4993198;28;20429;-68
2021/05/30 10:40:34;;;;;;;2.23;1.53;;;18.40;99.90;;;;;;4992755;28;20470;-66
2021/05/30 10:43:20;;;;;;;2.60;1.90;;;18.70;99.90;;;;;;4983927;28;20786;-68
2021/05/30 10:46:03;;;;;;;1.90;1.47;;;18.80;99.90;;;;;;4993209;28;20859;-68
2021/05/30 10:48:32;;;;;;;4.60;2.20;;;18.70;99.90;;;;;;4993162;28;20433;-68
2021/05/30 10:51:08;;;;;;;6.43;3.27;;;18.70;99.90;;;;;;4992474;28;20524;-67
2021/05/30 10:53:40;;;;;;;2.87;1.50;;;18.80;99.90;;;;;;4992555;28;20492;-67
2021/05/30 10:56:29;;;;;;;2.70;2.07;;;18.70;99.90;;;;;;4992796;28;20429;-67
2021/05/30 10:59:23;;;;;;;3.47;1.90;;;18.80;99.90;;;;;;4992622;28;20508;-67
2021/05/30 11:01:51;;;;;;;2.60;1.90;;;18.90;99.90;;;;;;4991242;28;20460;-65
2021/05/30 11:04:34;;;;;;;3.67;2.50;;;19.10;99.90;;;;;;4992123;28;20491;-67
2021/05/30 11:07:07;;;;;;;2.90;2.47;;;19.10;99.90;;;;;;4992952;28;20432;-67
2021/05/30 11:10:04;;;;;;;3.30;2.20;;;19.10;99.90;;;;;;4992854;28;20401;-67
2021/05/30 11:12:33;;;;;;;2.33;1.57;;;19.10;99.90;;;;;;4990471;28;20484;-67
2021/05/30 11:15:30;;;;;;;3.20;1.80;;;19.10;99.90;;;;;;4975140;28;20411;-67
2021/05/30 11:17:59;;;;;;;1.70;1.40;;;19.30;99.90;;;;;;4992418;28;20521;-67
2021/05/30 11:20:36;;;;;;;2.40;1.87;;;19.10;99.90;;;;;;4990816;28;20473;-67
2021/05/30 11:23:08;;;;;;;1.87;1.53;;;19.20;99.90;;;;;;4991779;28;20545;-67
2021/05/30 11:25:37;;;;;;;2.07;1.63;;;19.30;99.90;;;;;;4990900;28;20449;-67
2021/05/30 11:28:07;;;;;;;1.80;1.50;;;19.30;99.90;;;;;;4990463;28;20404;-67
2021/05/30 11:30:37;;;;;;;2.53;1.63;;;19.60;99.90;;;;;;4992048;28;20421;-67
2021/05/30 11:33:06;;;;;;;2.97;2.40;;;19.70;99.90;;;;;;4991901;28;20481;-67
2021/05/30 11:35:35;;;;;;;2.70;2.50;;;19.50;99.90;;;;;;4991676;28;20500;-68
2021/05/30 11:38:04;;;;;;;3.27;2.57;;;19.00;99.90;;;;;;4991599;28;20445;-68
2021/05/30 11:40:34;;;;;;;2.30;2.00;;;19.10;99.90;;;;;;4991360;28;20548;-66
2021/05/30 11:43:13;;;;;;;3.57;2.17;;;19.30;99.90;;;;;;4991333;28;20445;-68
2021/05/30 11:45:44;;;;;;;1.93;1.53;;;19.40;99.90;;;;;;4992002;28;20430;-67
2021/05/30 11:48:13;;;;;;;2.63;1.77;;;19.60;99.90;;;;;;4990398;28;21305;-68
2021/05/30 11:50:50;;;;;;;4.10;3.70;;;19.30;99.90;;;;;;4989053;28;20429;-65
2021/05/30 11:53:26;;;;;;;3.07;1.97;;;19.30;99.90;;;;;;4971752;28;20443;-69
2021/05/30 11:55:55;;;;;;;3.73;3.33;;;19.30;99.90;;;;;;4971299;28;20436;-67
2021/05/30 11:58:22;;;;;;;2.20;1.63;;;19.60;99.90;;;;;;4972015;28;20405;-66
2021/05/30 12:00:55;;;;;;;2.50;2.30;;;19.30;99.90;;;;;;4990412;28;20481;-67
2021/05/30 12:03:24;;;;;;;3.00;2.13;;;19.40;99.90;;;;;;4990969;28;20942;-67
2021/05/30 12:05:59;;;;;;;2.23;1.63;;;19.40;99.90;;;;;;4991095;28;20838;-66
2021/05/30 12:08:28;;;;;;;3.27;2.37;;;19.30;99.90;;;;;;4990861;28;20433;-65
2021/05/30 12:10:57;;;;;;;5.73;3.00;;;19.40;99.90;;;;;;4989868;28;20488;-68
2021/05/30 12:13:33;;;;;;;3.27;2.00;;;19.60;99.90;;;;;;4991074;28;20492;-67
2021/05/30 12:16:15;;;;;;;3.37;1.80;;;19.60;99.90;;;;;;4990942;28;20532;-68
2021/05/30 12:18:54;;;;;;;2.27;2.07;;;19.90;99.90;;;;;;4991071;28;20509;-67
2021/05/30 12:21:23;;;;;;;2.70;2.10;;;20.00;99.90;;;;;;4989764;28;20443;-67
2021/05/30 12:23:52;;;;;;;1.80;1.43;;;19.90;99.90;;;;;;4988455;28;20950;-68
2021/05/30 12:26:20;;;;;;;3.50;1.87;;;20.00;99.90;;;;;;4985571;28;20452;-67
2021/05/30 12:28:50;;;;;;;1.97;1.77;;;20.20;99.90;;;;;;4986714;28;20520;-67
2021/05/30 12:31:20;;;;;;;3.33;1.50;;;20.40;99.90;;;;;;4986776;28;20425;-67
2021/05/30 12:33:53;;;;;;;2.50;1.60;;;20.60;99.90;;;;;;4986393;28;20493;-67
2021/05/30 12:36:36;;;;;;;3.03;2.23;;;20.30;99.90;;;;;;4989175;28;20529;-66
2021/05/30 12:39:07;;;;;;;2.37;2.10;;;20.40;99.90;;;;;;4989330;28;20772;-67
2021/05/30 12:41:38;;;;;;;2.20;1.60;;;19.70;99.90;;;;;;4991906;28;20450;-69
2021/05/30 12:44:09;;;;;;;3.60;2.60;;;19.70;99.90;;;;;;4991151;28;20437;-67
2021/05/30 12:46:37;;;;;;;4.40;3.80;;;19.70;99.90;;;;;;4991604;28;20417;-68
2021/05/30 12:49:13;;;;;;;7.10;3.70;;;19.60;99.90;;;;;;4992120;28;20932;-70
2021/05/30 12:51:57;;;;;;;3.77;2.70;;;19.60;99.90;;;;;;4990990;28;20400;-67
2021/05/30 12:54:25;;;;;;;2.30;1.90;;;19.70;99.90;;;;;;4990810;28;20504;-67
2021/05/30 12:56:54;;;;;;;2.47;1.93;;;19.60;99.90;;;;;;4990987;28;20985;-67
2021/05/30 12:59:23;;;;;;;3.57;2.37;;;19.60;99.90;;;;;;4990742;28;21000;-67
2021/05/30 13:01:52;;;;;;;2.20;1.90;;;19.90;99.90;;;;;;4990498;28;20472;-68
2021/05/30 13:04:23;;;;;;;2.50;2.30;;;20.20;99.90;;;;;;4990557;28;20445;-67
2021/05/30 13:06:53;;;;;;;1.80;1.43;;;20.10;99.90;;;;;;4991020;28;20518;-67